createdAt,value
2018-08-04T09:07:19.401Z,6.97
2018-08-04T09:09:48.575Z,6.35
2018-08-04T09:12:17.753Z,3.70
2018-08-04T09:14:46.930Z,5.67
2018-08-04T09:17:16.221Z,5.62
2018-08-04T09:19:45.431Z,3.98
2018-08-04T09:22:14.611Z,6.12
2018-08-04T09:24:43.830Z,5.53
2018-08-04T09:27:13.051Z,5.55
2018-08-04T09:29:42.263Z,3.37
2018-08-04T09:32:11.458Z,7.20
2018-08-04T09:34:40.700Z,6.67
2018-08-04T09:37:09.894Z,2.65
2018-08-04T09:39:39.174Z,3.55
2018-08-04T09:42:08.362Z,5.83
2018-08-04T09:44:44.372Z,3.72
2018-08-04T09:47:13.558Z,3.35
2018-08-04T09:49:42.846Z,4.53
2018-08-04T09:52:12.034Z,6.53
2018-08-04T09:54:41.202Z,4.67
2018-08-04T09:57:10.378Z,7.12
2018-08-04T09:59:39.579Z,6.42
2018-08-04T10:02:11.093Z,3.55
2018-08-04T10:04:40.667Z,3.58
2018-08-04T10:07:10.484Z,4.85
2018-08-04T10:09:39.683Z,5.08
2018-08-04T10:12:08.869Z,4.67
2018-08-04T10:14:38.078Z,5.12
2018-08-04T10:17:07.365Z,4.92
2018-08-04T10:19:36.545Z,7.25
2018-08-04T10:22:05.757Z,3.45
2018-08-04T10:24:34.984Z,6.87
2018-08-04T10:27:04.217Z,4.87
2018-08-04T10:29:33.575Z,2.27
2018-08-04T10:32:02.879Z,7.00
2018-08-04T10:34:31.988Z,3.90
2018-08-04T10:37:01.229Z,7.95
2018-08-04T10:39:30.449Z,3.37
2018-08-04T10:41:59.741Z,2.75
2018-08-04T10:44:28.990Z,3.75
2018-08-04T10:46:58.250Z,4.10
2018-08-04T10:49:27.476Z,5.50
2018-08-04T10:51:56.644Z,3.92
2018-08-04T10:54:28.043Z,6.95
2018-08-04T10:56:57.316Z,3.30
2018-08-04T10:59:26.564Z,4.42
2018-08-04T11:01:55.806Z,3.08
2018-08-04T11:04:25.383Z,3.55
2018-08-04T11:06:54.553Z,2.47
2018-08-04T11:09:23.759Z,2.87
2018-08-04T11:11:52.984Z,4.70
2018-08-04T11:14:22.186Z,4.08
2018-08-04T11:16:51.383Z,4.62
2018-08-04T11:19:20.582Z,10.20
2018-08-04T11:21:49.808Z,3.85
2018-08-04T11:24:19.016Z,10.68
2018-08-04T11:26:48.242Z,7.40
2018-08-04T11:29:17.476Z,5.37
2018-08-04T11:31:47.372Z,6.03
2018-08-04T11:34:16.598Z,10.23
2018-08-04T11:36:45.822Z,5.28
2018-08-04T11:39:15.004Z,6.33
2018-08-04T11:41:44.222Z,7.83
2018-08-04T11:44:13.700Z,5.50
2018-08-04T11:46:42.934Z,4.53
2018-08-04T11:49:12.223Z,5.33
2018-08-04T11:51:41.473Z,4.83
2018-08-04T11:54:10.589Z,6.17
2018-08-04T11:56:39.803Z,5.33
2018-08-04T11:59:09.033Z,5.25
2018-08-04T12:01:38.259Z,7.75
2018-08-04T12:04:07.539Z,5.42
2018-08-04T12:06:36.897Z,5.05
2018-08-04T12:09:09.302Z,6.20
2018-08-04T12:11:38.507Z,4.75
2018-08-04T12:14:08.430Z,9.05
2018-08-04T12:16:37.719Z,7.45
2018-08-04T12:19:06.924Z,7.58
2018-08-04T12:21:36.148Z,4.47
2018-08-04T12:24:05.390Z,4.90
2018-08-04T12:26:34.608Z,7.30
2018-08-04T12:29:03.779Z,5.72
2018-08-04T12:31:33.010Z,4.00
2018-08-04T12:34:02.279Z,3.80
2018-08-04T12:36:31.434Z,4.25
2018-08-04T12:39:00.575Z,3.75
2018-08-04T12:41:29.776Z,6.08
2018-08-04T12:43:58.987Z,6.97
2018-08-04T12:46:28.162Z,5.87
2018-08-04T12:48:57.379Z,5.03
2018-08-04T12:51:26.697Z,4.33
2018-08-04T12:53:55.862Z,5.12
2018-08-04T12:56:25.072Z,3.62
2018-08-04T12:58:54.246Z,6.85
2018-08-04T13:01:23.405Z,4.00
2018-08-04T13:03:52.580Z,6.10
2018-08-04T13:06:21.716Z,7.90
2018-08-04T13:08:50.937Z,5.20
2018-08-04T13:11:20.131Z,4.97
2018-08-04T13:13:49.286Z,8.73
2018-08-04T13:16:18.421Z,7.80
2018-08-04T13:18:47.576Z,10.35
2018-08-04T13:21:16.752Z,7.12
2018-08-04T13:23:45.906Z,3.12
2018-08-04T13:26:15.100Z,4.95
2018-08-04T13:28:44.239Z,10.10
2018-08-04T13:31:13.412Z,5.30
2018-08-04T13:33:42.576Z,4.22
2018-08-04T13:36:11.785Z,3.25
2018-08-04T13:38:40.943Z,7.37
2018-08-04T13:41:10.106Z,7.50
2018-08-04T13:43:39.307Z,7.70
2018-08-04T13:46:08.511Z,5.00
2018-08-04T13:48:37.699Z,6.78
2018-08-04T13:51:06.989Z,5.78
2018-08-04T13:53:36.217Z,5.83
2018-08-04T13:56:05.615Z,11.00
2018-08-04T13:58:34.997Z,7.62
2018-08-04T14:01:04.224Z,8.08
2018-08-04T14:03:33.389Z,4.40
2018-08-04T14:06:02.530Z,5.25
2018-08-04T14:08:31.689Z,5.25
2018-08-04T14:11:00.877Z,5.67
2018-08-04T14:13:30.049Z,7.10
2018-08-04T14:15:59.237Z,5.03
2018-08-04T14:18:28.457Z,8.08
2018-08-04T14:20:57.657Z,5.70
2018-08-04T14:23:26.829Z,6.28
2018-08-04T14:25:55.972Z,3.92
2018-08-04T14:28:25.209Z,4.75
2018-08-04T14:30:54.339Z,5.97
2018-08-04T14:33:23.515Z,6.12
2018-08-04T14:35:52.764Z,6.05
2018-08-04T14:38:21.956Z,4.67
2018-08-04T14:40:51.116Z,6.37
2018-08-04T14:43:20.274Z,4.73
2018-08-04T14:45:49.483Z,6.57
2018-08-04T14:48:18.678Z,4.60
2018-08-04T14:50:47.976Z,6.10
2018-08-04T14:53:17.112Z,7.67
2018-08-04T14:55:46.277Z,9.23
2018-08-04T14:58:15.434Z,7.80
2018-08-04T15:00:44.602Z,9.37
2018-08-04T15:03:13.760Z,14.23
2018-08-04T15:05:42.958Z,10.77
2018-08-04T15:08:12.127Z,11.53
2018-08-04T15:10:41.282Z,11.37
2018-08-04T15:13:10.450Z,11.43
2018-08-04T15:15:39.661Z,10.10
2018-08-04T15:18:08.848Z,9.10
2018-08-04T15:20:38.010Z,13.90
2018-08-04T15:23:07.185Z,17.07
2018-08-04T15:25:36.353Z,13.67
2018-08-04T15:28:05.620Z,16.03
2018-08-04T15:30:34.779Z,16.47
2018-08-04T15:33:03.983Z,13.03
2018-08-04T15:35:33.085Z,16.83
2018-08-04T15:38:02.283Z,16.53
2018-08-04T15:40:31.458Z,12.30
2018-08-04T15:43:00.613Z,13.77
2018-08-04T15:45:29.798Z,16.17
2018-08-04T15:47:58.980Z,16.97
2018-08-04T15:50:28.171Z,14.53
2018-08-04T15:52:57.361Z,12.90
2018-08-04T15:55:26.557Z,19.50
2018-08-04T15:57:55.751Z,10.60
2018-08-04T16:00:24.920Z,12.47
2018-08-04T16:02:54.091Z,13.07
2018-08-04T16:05:23.304Z,12.70
2018-08-04T16:07:52.465Z,9.47
2018-08-04T16:10:21.636Z,11.37
2018-08-04T16:12:50.888Z,10.47
2018-08-04T16:15:20.057Z,17.27
2018-08-04T16:17:49.316Z,12.30
2018-08-04T16:20:19.392Z,12.73
2018-08-04T16:22:48.652Z,13.00
2018-08-04T16:25:17.829Z,11.83
2018-08-04T16:27:46.994Z,11.77
2018-08-04T16:30:16.156Z,11.13
2018-08-04T16:32:45.344Z,13.00
2018-08-04T16:35:14.506Z,11.37
2018-08-04T16:37:43.656Z,11.37
2018-08-04T16:40:12.836Z,11.67
2018-08-04T16:42:42.039Z,15.73
2018-08-04T16:45:11.177Z,16.03
2018-08-04T16:47:40.346Z,12.07
2018-08-04T16:50:09.509Z,13.57
2018-08-04T16:52:38.658Z,10.30
2018-08-04T16:55:07.797Z,12.97
2018-08-04T16:57:36.990Z,8.97
2018-08-04T17:00:06.812Z,15.27
2018-08-04T17:02:36.026Z,14.77
2018-08-04T17:05:05.485Z,13.40
2018-08-04T17:07:34.695Z,12.87
2018-08-04T17:10:03.882Z,11.53
2018-08-04T17:12:33.132Z,11.23
2018-08-04T17:15:02.282Z,12.73
2018-08-04T17:17:31.466Z,11.13
2018-08-04T17:20:00.645Z,21.83
2018-08-04T17:22:29.817Z,15.17
2018-08-04T17:24:59.015Z,11.20
2018-08-04T17:27:28.240Z,11.33
2018-08-04T17:29:57.403Z,9.47
2018-08-04T17:32:26.581Z,11.77
2018-08-04T17:34:55.725Z,16.73
2018-08-04T17:37:24.977Z,10.37
2018-08-04T17:39:54.068Z,17.20
2018-08-04T17:42:23.242Z,10.27
2018-08-04T17:44:52.443Z,9.80
2018-08-04T17:47:21.600Z,7.13
2018-08-04T17:49:50.783Z,10.67
2018-08-04T17:52:19.989Z,9.53
2018-08-04T17:54:49.158Z,10.57
2018-08-04T17:57:18.381Z,10.57
2018-08-04T17:59:47.482Z,8.23
2018-08-04T18:02:16.645Z,9.33
2018-08-04T18:04:45.797Z,8.53
2018-08-04T18:07:14.959Z,7.03
2018-08-04T18:09:50.637Z,8.53
2018-08-04T18:12:19.798Z,10.53
2018-08-04T18:14:49.021Z,6.03
2018-08-04T18:17:18.152Z,9.13
2018-08-04T18:19:48.454Z,9.17
2018-08-04T18:22:17.574Z,9.43
2018-08-04T18:24:46.753Z,8.40
2018-08-04T18:27:15.953Z,10.47
2018-08-04T18:29:45.174Z,10.73
2018-08-04T18:32:14.334Z,9.57
2018-08-04T18:34:43.476Z,14.03
2018-08-04T18:37:12.659Z,11.47
2018-08-04T18:39:41.832Z,12.27
2018-08-04T18:42:10.982Z,10.17
2018-08-04T18:44:40.192Z,7.50
2018-08-04T18:47:09.843Z,9.20
2018-08-04T18:49:39.021Z,7.83
2018-08-04T18:52:08.255Z,8.23
2018-08-04T18:54:37.467Z,12.23
2018-08-04T18:57:06.661Z,13.90
2018-08-04T18:59:36.526Z,12.77
2018-08-04T19:02:05.775Z,11.23
2018-08-04T19:04:34.917Z,8.70
2018-08-04T19:07:04.092Z,7.57
2018-08-04T19:09:33.273Z,11.07
2018-08-04T19:12:02.517Z,11.53
2018-08-04T19:14:31.707Z,10.20
2018-08-04T19:17:00.875Z,9.63
2018-08-04T19:19:30.090Z,10.53
2018-08-04T19:21:59.264Z,9.50
2018-08-04T19:24:28.435Z,9.67
2018-08-04T19:26:57.632Z,10.33
2018-08-04T19:29:26.807Z,8.73
2018-08-04T19:31:56.063Z,13.43
2018-08-04T19:34:25.231Z,12.63
2018-08-04T19:36:54.684Z,11.43
2018-08-04T19:39:23.883Z,10.70
2018-08-04T19:41:53.056Z,10.57
2018-08-04T19:44:22.219Z,11.83
2018-08-04T19:46:51.374Z,11.53
2018-08-04T19:49:20.544Z,12.00
2018-08-04T19:51:49.707Z,14.10
2018-08-04T19:54:18.885Z,13.20
2018-08-04T19:56:48.036Z,9.80
2018-08-04T19:59:17.243Z,11.70
2018-08-04T20:01:46.401Z,10.37
2018-08-04T20:04:18.449Z,14.60
2018-08-04T20:06:47.639Z,11.60
2018-08-04T20:09:16.859Z,17.17
2018-08-04T20:11:46.034Z,15.37
2018-08-04T20:14:15.219Z,9.97
2018-08-04T20:16:44.404Z,13.77
2018-08-04T20:19:13.569Z,11.33
2018-08-04T20:21:42.764Z,14.67
2018-08-04T20:24:11.942Z,10.90
2018-08-04T20:26:41.142Z,14.37
2018-08-04T20:29:10.394Z,14.77
2018-08-04T20:31:39.597Z,11.13
2018-08-04T20:34:08.774Z,15.30
2018-08-04T20:36:37.960Z,12.87
2018-08-04T20:39:09.011Z,10.93
2018-08-04T20:41:38.244Z,14.63
2018-08-04T20:44:07.435Z,17.93
2018-08-04T20:46:36.632Z,15.37
2018-08-04T20:49:05.849Z,13.73
2018-08-04T20:51:35.038Z,15.87
2018-08-04T20:54:04.186Z,15.10
2018-08-04T20:56:33.362Z,17.67
2018-08-04T20:59:02.545Z,19.10
2018-08-04T21:01:42.168Z,15.40
2018-08-04T21:04:11.270Z,14.80
2018-08-04T21:06:40.431Z,18.73
2018-08-04T21:09:09.655Z,20.77
2018-08-04T21:11:46.274Z,20.73
2018-08-04T21:14:15.431Z,15.67
2018-08-04T21:16:44.573Z,29.17
2018-08-04T21:19:13.763Z,18.47
2018-08-04T21:21:42.901Z,20.13
2018-08-04T21:24:12.064Z,19.40
2018-08-04T21:26:41.253Z,16.53
2018-08-04T21:29:10.397Z,18.03
2018-08-04T21:31:39.594Z,18.77
2018-08-04T21:34:09.147Z,17.00
2018-08-04T21:36:38.323Z,18.40
2018-08-04T21:39:10.324Z,19.77
2018-08-04T21:41:39.532Z,16.87
2018-08-04T21:44:08.773Z,20.30
2018-08-04T21:46:46.812Z,19.60
2018-08-04T21:49:16.112Z,16.70
2018-08-04T21:51:46.431Z,15.63
2018-08-04T21:54:19.918Z,14.37
2018-08-04T21:56:45.858Z,21.47
2018-08-04T21:59:15.040Z,22.07
2018-08-04T22:01:49.631Z,19.93
2018-08-04T22:04:18.809Z,17.93
2018-08-04T22:07:58.022Z,18.53
2018-08-04T22:10:27.370Z,17.23
2018-08-04T22:12:56.928Z,16.43
2018-08-04T22:15:26.190Z,18.00
2018-08-04T22:17:55.389Z,19.93
2018-08-04T22:20:25.221Z,18.97
2018-08-04T22:22:54.418Z,16.27
2018-08-04T22:25:24.735Z,19.10
2018-08-04T22:27:54.227Z,18.30
2018-08-04T22:30:23.853Z,15.30
2018-08-04T22:32:53.161Z,23.37
2018-08-04T22:35:22.681Z,18.27
2018-08-04T22:37:51.867Z,19.30
2018-08-04T22:40:22.371Z,19.07
2018-08-04T22:42:51.527Z,16.47
2018-08-04T22:46:24.666Z,20.80
2018-08-04T22:48:54.665Z,20.17
2018-08-04T22:51:28.853Z,21.37
2018-08-04T22:53:58.015Z,19.17
2018-08-04T22:56:27.257Z,19.77
2018-08-04T22:58:56.420Z,17.40
2018-08-04T23:01:25.579Z,22.67
2018-08-04T23:03:54.733Z,19.00
2018-08-04T23:06:23.889Z,15.23
2018-08-04T23:08:53.044Z,14.30
2018-08-04T23:11:22.222Z,14.40
2018-08-04T23:13:51.379Z,15.33
2018-08-04T23:16:20.550Z,16.90
2018-08-04T23:18:49.724Z,11.67
2018-08-04T23:21:18.848Z,11.60
2018-08-04T23:23:48.062Z,9.27
2018-08-04T23:26:17.255Z,14.60
2018-08-04T23:28:46.420Z,14.67
2018-08-04T23:31:15.583Z,15.83
2018-08-04T23:33:44.740Z,12.07
2018-08-04T23:36:13.892Z,11.57
2018-08-04T23:38:43.068Z,13.27
2018-08-04T23:41:12.213Z,11.97
2018-08-04T23:43:41.463Z,12.23
2018-08-04T23:46:10.624Z,14.13
2018-08-04T23:48:39.788Z,9.10
2018-08-04T23:51:08.938Z,11.43
2018-08-04T23:53:38.109Z,9.90
2018-08-04T23:56:07.261Z,11.50
2018-08-04T23:58:36.430Z,12.93
